Time;durP1;ratioP1;P1;durP2;ratioP2;P2;SDS_P1;SDS_P2;PMS_P1;PMS_P2;Temp;Humidity;BMP_temperature;BMP_pressure;BME280_temperature;BME280_humidity;BME280_pressure;Samples;Min_cycle;Max_cycle;Signal;HPM_P1;HPM_P2
2023/08/03 00:01:45;;;;;;;59.63;8.15;;;;;;;;;;4955271;29;20031;-56
2023/08/03 00:04:12;;;;;;;55.10;8.52;;;;;;;;;;4957659;28;20035;-57
2023/08/03 00:06:39;;;;;;;56.50;8.13;;;;;;;;;;4974140;28;20035;-58
2023/08/03 00:09:06;;;;;;;87.90;9.90;;;;;;;;;;4973209;28;20034;-58
2023/08/03 00:11:33;;;;;;;101.35;10.00;;;;;;;;;;4974183;28;20039;-55
2023/08/03 00:14:00;;;;;;;75.28;9.70;;;;;;;;;;4974010;28;20473;-58
2023/08/03 00:16:27;;;;;;;84.68;9.77;;;;;;;;;;4973860;28;20047;-59
2023/08/03 00:18:54;;;;;;;79.72;10.30;;;;;;;;;;4965460;28;20049;-58
2023/08/03 00:21:21;;;;;;;81.72;10.88;;;;;;;;;;4965013;28;20046;-57
2023/08/03 00:23:48;;;;;;;92.10;12.05;;;;;;;;;;4973841;28;20485;-58
2023/08/03 00:26:15;;;;;;;93.10;12.77;;;;;;;;;;4973020;28;20058;-59
2023/08/03 00:28:43;;;;;;;102.60;15.70;;;;;;;;;;4969648;28;20039;-55
2023/08/03 00:31:10;;;;;;;92.28;14.52;;;;;;;;;;4954740;28;20049;-58
2023/08/03 00:33:37;;;;;;;94.85;14.82;;;;;;;;;;4969418;28;20043;-56
2023/08/03 00:36:04;;;;;;;97.82;15.65;;;;;;;;;;4982218;28;20581;-58
2023/08/03 00:38:31;;;;;;;106.38;16.20;;;;;;;;;;4977991;28;20022;-58
2023/08/03 00:40:58;;;;;;;89.35;14.50;;;;;;;;;;4973590;28;20122;-59
2023/08/03 00:43:25;;;;;;;97.70;15.82;;;;;;;;;;4990081;28;20113;-56
2023/08/03 00:45:52;;;;;;;91.90;16.50;;;;;;;;;;4993047;28;20237;-59
2023/08/03 00:48:19;;;;;;;88.78;15.45;;;;;;;;;;4986639;28;20038;-58
2023/08/03 00:50:46;;;;;;;101.82;16.80;;;;;;;;;;4985515;28;20045;-58
2023/08/03 00:53:13;;;;;;;81.20;14.48;;;;;;;;;;4992733;28;20503;-58
2023/08/03 00:55:40;;;;;;;92.68;14.70;;;;;;;;;;4992968;28;20026;-59
2023/08/03 00:58:08;;;;;;;73.47;15.00;;;;;;;;;;4992624;28;20045;-58
2023/08/03 01:00:36;;;;;;;106.38;17.40;;;;;;;;;;4992677;28;20034;-59
2023/08/03 01:03:03;;;;;;;112.05;16.90;;;;;;;;;;4992424;28;20100;-59
2023/08/03 01:05:34;;;;;;;87.63;16.40;;;;;;;;;;4992740;28;20100;-60
2023/08/03 01:08:02;;;;;;;87.60;15.88;;;;;;;;;;4979963;28;20081;-58
2023/08/03 01:10:29;;;;;;;90.03;15.68;;;;;;;;;;4976626;28;20434;-58
2023/08/03 01:12:57;;;;;;;98.30;16.40;;;;;;;;;;4986664;28;20037;-57
2023/08/03 01:15:24;;;;;;;86.32;16.42;;;;;;;;;;4976790;28;20038;-57
2023/08/03 01:17:52;;;;;;;89.95;16.27;;;;;;;;;;4979704;28;20027;-59
2023/08/03 01:20:20;;;;;;;87.28;15.88;;;;;;;;;;4986675;28;20504;-59
2023/08/03 01:22:47;;;;;;;79.13;15.52;;;;;;;;;;4974369;28;20030;-59
2023/08/03 01:25:14;;;;;;;87.50;14.45;;;;;;;;;;4973066;28;20516;-58
2023/08/03 01:27:45;;;;;;;93.55;15.50;;;;;;;;;;4971516;28;20133;-59
2023/08/03 01:30:12;;;;;;;93.60;14.88;;;;;;;;;;4972729;28;20039;-60
2023/08/03 01:32:40;;;;;;;70.47;14.10;;;;;;;;;;4972752;28;20047;-58
2023/08/03 01:35:08;;;;;;;79.22;14.15;;;;;;;;;;4973185;28;20062;-59
2023/08/03 01:37:36;;;;;;;78.63;14.70;;;;;;;;;;4985980;28;20030;-58
2023/08/03 01:40:04;;;;;;;74.72;13.27;;;;;;;;;;4972686;28;20046;-58
2023/08/03 01:42:31;;;;;;;74.13;15.38;;;;;;;;;;4972790;28;20113;-56
2023/08/03 01:44:58;;;;;;;68.93;14.27;;;;;;;;;;4985480;28;20029;-58
2023/08/03 01:47:26;;;;;;;65.32;13.95;;;;;;;;;;4975105;28;20580;-58
2023/08/03 01:49:53;;;;;;;67.90;14.18;;;;;;;;;;4978764;28;20041;-58
2023/08/03 01:52:20;;;;;;;75.55;13.43;;;;;;;;;;4984064;28;20539;-58
2023/08/03 01:54:47;;;;;;;65.88;13.82;;;;;;;;;;4991100;28;20053;-59
2023/08/03 01:57:15;;;;;;;63.13;13.40;;;;;;;;;;4990513;28;20033;-60
2023/08/03 01:59:42;;;;;;;56.83;11.77;;;;;;;;;;4991427;28;20128;-58
2023/08/03 02:02:09;;;;;;;62.28;12.80;;;;;;;;;;4990850;28;20428;-58
2023/08/03 02:04:37;;;;;;;56.92;12.70;;;;;;;;;;4991899;28;20097;-59
2023/08/03 02:07:13;;;;;;;54.75;11.60;;;;;;;;;;4980887;28;20053;-59
2023/08/03 02:09:40;;;;;;;62.58;13.65;;;;;;;;;;4972598;28;20023;-58
2023/08/03 02:12:08;;;;;;;62.60;12.63;;;;;;;;;;4985433;28;20369;-60
2023/08/03 02:14:36;;;;;;;57.13;11.80;;;;;;;;;;4972394;28;20093;-59
2023/08/03 02:17:03;;;;;;;64.30;12.95;;;;;;;;;;4988152;28;20113;-59
2023/08/03 02:19:30;;;;;;;55.00;11.55;;;;;;;;;;4990745;28;20114;-60
2023/08/03 02:21:57;;;;;;;52.13;11.50;;;;;;;;;;4990756;28;20049;-59
2023/08/03 02:24:25;;;;;;;52.08;11.95;;;;;;;;;;4991429;28;20535;-58
2023/08/03 02:26:52;;;;;;;56.20;11.40;;;;;;;;;;4990995;28;20034;-59
2023/08/03 02:29:19;;;;;;;48.78;11.73;;;;;;;;;;4991154;28;20547;-59
2023/08/03 02:31:46;;;;;;;58.17;12.25;;;;;;;;;;4973936;28;20029;-59
2023/08/03 02:34:13;;;;;;;52.38;11.95;;;;;;;;;;4995123;28;20035;-58
2023/08/03 02:36:40;;;;;;;57.55;11.63;;;;;;;;;;4995053;28;20018;-57
2023/08/03 02:39:07;;;;;;;51.85;11.63;;;;;;;;;;4992299;28;20030;-57
2023/08/03 02:41:38;;;;;;;53.40;11.95;;;;;;;;;;4994698;28;20026;-59
2023/08/03 02:44:05;;;;;;;50.13;11.18;;;;;;;;;;4995217;28;20398;-59
2023/08/03 02:46:32;;;;;;;56.30;11.98;;;;;;;;;;4995621;28;20425;-59
2023/08/03 02:49:00;;;;;;;46.38;10.93;;;;;;;;;;4978067;28;20382;-59
2023/08/03 02:51:27;;;;;;;43.60;11.73;;;;;;;;;;4995570;28;20042;-59
2023/08/03 02:53:54;;;;;;;51.80;11.63;;;;;;;;;;4977989;28;20118;-59
2023/08/03 02:56:21;;;;;;;54.30;11.13;;;;;;;;;;4995495;28;20443;-59
2023/08/03 02:58:48;;;;;;;49.85;11.82;;;;;;;;;;4995514;28;20030;-59
2023/08/03 03:01:16;;;;;;;42.70;10.65;;;;;;;;;;4995493;28;20031;-59
2023/08/03 03:03:44;;;;;;;43.47;11.13;;;;;;;;;;4995284;28;20149;-59
2023/08/03 03:06:11;;;;;;;48.60;11.20;;;;;;;;;;4995286;28;20106;-59
2023/08/03 03:08:42;;;;;;;51.90;10.48;;;;;;;;;;4995070;28;20061;-59
2023/08/03 03:11:09;;;;;;;52.35;11.23;;;;;;;;;;4995224;28;20112;-59
2023/08/03 03:13:36;;;;;;;45.42;11.18;;;;;;;;;;4995078;28;20563;-59
2023/08/03 03:16:03;;;;;;;45.20;11.02;;;;;;;;;;4995048;28;20042;-59
2023/08/03 03:18:29;;;;;;;49.00;10.57;;;;;;;;;;4995123;28;20034;-59
2023/08/03 03:20:57;;;;;;;41.70;10.70;;;;;;;;;;4995018;28;20026;-59
2023/08/03 03:23:24;;;;;;;55.10;11.32;;;;;;;;;;4994815;28;20034;-59
2023/08/03 03:25:50;;;;;;;41.78;10.73;;;;;;;;;;4995043;28;20034;-59
2023/08/03 03:28:17;;;;;;;42.22;10.93;;;;;;;;;;4994737;28;20467;-59
2023/08/03 03:30:44;;;;;;;47.65;11.18;;;;;;;;;;4994850;28;20037;-59
2023/08/03 03:33:11;;;;;;;39.42;10.40;;;;;;;;;;4994482;28;20153;-59
2023/08/03 03:35:38;;;;;;;45.15;10.93;;;;;;;;;;4994765;28;20469;-59
2023/08/03 03:38:05;;;;;;;35.65;10.75;;;;;;;;;;4994698;28;20465;-59
2023/08/03 03:40:32;;;;;;;40.55;10.23;;;;;;;;;;4994655;28;20112;-59
2023/08/03 03:42:59;;;;;;;44.60;11.18;;;;;;;;;;4994424;28;20034;-59
2023/08/03 03:45:26;;;;;;;42.53;10.98;;;;;;;;;;4994586;28;20054;-59
2023/08/03 03:47:54;;;;;;;40.33;10.07;;;;;;;;;;4994425;28;20424;-59
2023/08/03 03:50:21;;;;;;;46.55;10.90;;;;;;;;;;4994407;28;20424;-59
2023/08/03 03:52:48;;;;;;;37.40;9.73;;;;;;;;;;4994461;28;20022;-58
2023/08/03 03:55:15;;;;;;;43.10;10.10;;;;;;;;;;4994389;28;20125;-58
2023/08/03 03:57:42;;;;;;;43.08;10.23;;;;;;;;;;4994418;28;20026;-55
2023/08/03 04:00:10;;;;;;;38.95;10.35;;;;;;;;;;4994288;28;20771;-58
2023/08/03 04:02:37;;;;;;;38.50;9.90;;;;;;;;;;4994168;28;20031;-58
2023/08/03 04:05:04;;;;;;;34.70;9.55;;;;;;;;;;4994186;28;20030;-58
2023/08/03 04:07:31;;;;;;;34.72;9.18;;;;;;;;;;4976470;28;20068;-58
2023/08/03 04:09:58;;;;;;;39.08;9.75;;;;;;;;;;4994123;28;20080;-57
2023/08/03 04:12:25;;;;;;;36.30;9.57;;;;;;;;;;4993967;28;20038;-58
2023/08/03 04:14:52;;;;;;;36.22;9.23;;;;;;;;;;4994112;28;20038;-58
2023/08/03 04:17:18;;;;;;;35.00;9.15;;;;;;;;;;4994024;28;20039;-57
2023/08/03 04:19:46;;;;;;;29.95;8.95;;;;;;;;;;4993895;28;20038;-56
2023/08/03 04:22:12;;;;;;;34.35;8.52;;;;;;;;;;4993803;28;20038;-58
2023/08/03 04:24:40;;;;;;;36.13;10.05;;;;;;;;;;4993907;28;20022;-59
2023/08/03 04:27:07;;;;;;;30.65;9.00;;;;;;;;;;4993775;28;20026;-59
2023/08/03 04:29:34;;;;;;;30.92;9.23;;;;;;;;;;4993823;28;20034;-59
2023/08/03 04:32:01;;;;;;;30.73;8.60;;;;;;;;;;4993426;28;20089;-58
2023/08/03 04:34:28;;;;;;;37.38;9.27;;;;;;;;;;4993630;28;20034;-57
2023/08/03 04:36:55;;;;;;;27.48;8.43;;;;;;;;;;4993614;28;20093;-57
2023/08/03 04:39:22;;;;;;;31.23;8.55;;;;;;;;;;4976115;28;20031;-58
2023/08/03 04:41:49;;;;;;;27.40;8.70;;;;;;;;;;4993435;28;20093;-58
2023/08/03 04:44:16;;;;;;;32.72;8.73;;;;;;;;;;4993481;28;20480;-57
2023/08/03 04:46:43;;;;;;;31.50;7.75;;;;;;;;;;4993474;28;20037;-57
2023/08/03 04:49:12;;;;;;;31.08;7.95;;;;;;;;;;4993336;28;20070;-57
2023/08/03 04:51:39;;;;;;;24.30;7.53;;;;;;;;;;4993254;28;20040;-58
2023/08/03 04:54:06;;;;;;;30.85;8.48;;;;;;;;;;4993243;28;20038;-57
2023/08/03 04:56:33;;;;;;;28.10;7.75;;;;;;;;;;4992545;28;20444;-57
2023/08/03 04:59:00;;;;;;;31.15;8.48;;;;;;;;;;4993230;28;20092;-57
2023/08/03 05:01:27;;;;;;;26.90;7.70;;;;;;;;;;4993109;28;20109;-58
2023/08/03 05:03:55;;;;;;;29.23;8.10;;;;;;;;;;4993032;28;20041;-57
2023/08/03 05:06:22;;;;;;;25.63;7.60;;;;;;;;;;4992994;28;20045;-58
2023/08/03 05:08:50;;;;;;;28.98;7.47;;;;;;;;;;4992930;28;20038;-55
2023/08/03 05:11:17;;;;;;;28.35;7.07;;;;;;;;;;4992871;28;20034;-58
2023/08/03 05:13:44;;;;;;;23.45;7.43;;;;;;;;;;4992861;28;20089;-58
2023/08/03 05:16:11;;;;;;;27.23;7.30;;;;;;;;;;4992866;28;20077;-57
2023/08/03 05:18:38;;;;;;;20.45;7.05;;;;;;;;;;4992893;28;20397;-56
2023/08/03 05:21:05;;;;;;;26.83;7.22;;;;;;;;;;4992820;28;20477;-59
2023/08/03 05:23:32;;;;;;;22.17;7.18;;;;;;;;;;4992883;28;20125;-59
2023/08/03 05:25:59;;;;;;;22.60;6.82;;;;;;;;;;4992640;28;20045;-59
2023/08/03 05:28:26;;;;;;;22.33;6.70;;;;;;;;;;4992613;28;20469;-59
2023/08/03 05:30:53;;;;;;;25.17;7.70;;;;;;;;;;4992682;28;20026;-58
2023/08/03 05:33:20;;;;;;;23.60;6.70;;;;;;;;;;4992371;28;20405;-59
2023/08/03 05:35:48;;;;;;;23.38;7.22;;;;;;;;;;4992637;28;20109;-59
2023/08/03 05:38:16;;;;;;;26.92;7.18;;;;;;;;;;4992643;28;20515;-59
2023/08/03 05:40:43;;;;;;;20.40;6.68;;;;;;;;;;4992429;28;20050;-59
2023/08/03 05:43:16;;;;;;;19.30;7.03;;;;;;;;;;4992503;28;20027;-59
2023/08/03 05:45:44;;;;;;;22.45;6.45;;;;;;;;;;4992439;28;20039;-59
2023/08/03 05:48:15;;;;;;;21.38;6.70;;;;;;;;;;4992444;28;20043;-59
2023/08/03 05:50:43;;;;;;;25.23;6.20;;;;;;;;;;4992320;28;20109;-59
2023/08/03 05:53:10;;;;;;;22.08;6.57;;;;;;;;;;4992310;28;20026;-59
2023/08/03 05:55:38;;;;;;;24.63;6.20;;;;;;;;;;4992411;28;20085;-59
2023/08/03 05:58:05;;;;;;;23.05;6.63;;;;;;;;;;4992327;28;20026;-59
2023/08/03 06:00:32;;;;;;;21.63;6.47;;;;;;;;;;4992347;28;20041;-59
2023/08/03 06:03:00;;;;;;;18.98;6.03;;;;;;;;;;4990896;28;20034;-57
2023/08/03 06:05:39;;;;;;;20.38;6.43;;;;;;;;;;4992290;28;20037;-57
2023/08/03 06:08:13;;;;;;;19.08;6.13;;;;;;;;;;4991420;28;20034;-57
2023/08/03 06:10:40;;;;;;;23.75;6.80;;;;;;;;;;4992215;28;20098;-58
2023/08/03 06:13:10;;;;;;;16.90;6.30;;;;;;;;;;4992017;28;20026;-58
2023/08/03 06:15:37;;;;;;;20.00;6.47;;;;;;;;;;4992070;28;20105;-58
2023/08/03 06:18:05;;;;;;;18.75;6.30;;;;;;;;;;4992198;28;20053;-58
2023/08/03 06:20:33;;;;;;;18.00;5.75;;;;;;;;;;4992100;28;20022;-58
2023/08/03 06:23:01;;;;;;;17.67;6.22;;;;;;;;;;4991949;28;20077;-58
2023/08/03 06:25:28;;;;;;;16.83;6.35;;;;;;;;;;4992115;28;20117;-59
2023/08/03 06:27:57;;;;;;;16.33;6.20;;;;;;;;;;4991958;28;20040;-59
2023/08/03 06:30:24;;;;;;;15.38;5.93;;;;;;;;;;4991824;28;20508;-58
2023/08/03 06:32:51;;;;;;;16.17;6.03;;;;;;;;;;4991687;28;20126;-58
2023/08/03 06:35:38;;;;;;;16.48;6.03;;;;;;;;;;4991990;28;20045;-59
2023/08/03 06:38:06;;;;;;;15.60;5.43;;;;;;;;;;4992035;28;20033;-58
2023/08/03 06:40:33;;;;;;;15.50;6.07;;;;;;;;;;4991890;28;20109;-59
2023/08/03 06:43:01;;;;;;;16.38;6.15;;;;;;;;;;4991883;28;20045;-58
2023/08/03 06:45:31;;;;;;;19.77;6.10;;;;;;;;;;4991952;28;20041;-58
2023/08/03 06:47:58;;;;;;;15.82;5.75;;;;;;;;;;4991746;28;20043;-58
2023/08/03 06:50:26;;;;;;;18.77;5.95;;;;;;;;;;4991841;28;20369;-59
2023/08/03 06:52:53;;;;;;;14.82;5.80;;;;;;;;;;4991719;28;20059;-60
2023/08/03 06:55:20;;;;;;;17.48;5.38;;;;;;;;;;4991900;28;20045;-59
2023/08/03 06:57:47;;;;;;;18.23;5.95;;;;;;;;;;4991823;28;20037;-59
2023/08/03 07:00:15;;;;;;;15.40;5.75;;;;;;;;;;4991723;28;20038;-60
2023/08/03 07:02:43;;;;;;;16.30;6.03;;;;;;;;;;4991563;28;20101;-59
2023/08/03 07:05:10;;;;;;;17.13;5.53;;;;;;;;;;4991699;28;20077;-59
2023/08/03 07:07:37;;;;;;;18.88;6.20;;;;;;;;;;4991695;28;20030;-59
2023/08/03 07:10:05;;;;;;;17.13;6.00;;;;;;;;;;4991752;28;20038;-59
2023/08/03 07:12:33;;;;;;;15.65;5.78;;;;;;;;;;4991409;28;20084;-59
2023/08/03 07:15:00;;;;;;;16.92;6.47;;;;;;;;;;4991689;28;20041;-59
2023/08/03 07:17:27;;;;;;;17.80;6.32;;;;;;;;;;4991615;28;20034;-59
2023/08/03 07:19:54;;;;;;;15.27;6.65;;;;;;;;;;4994836;28;20096;-59
2023/08/03 07:22:24;;;;;;;12.68;6.55;;;;;;;;;;4994988;28;20029;-59
2023/08/03 07:24:52;;;;;;;16.70;6.72;;;;;;;;;;4995066;28;20030;-59
2023/08/03 07:27:19;;;;;;;12.75;6.38;;;;;;;;;;4994947;28;20030;-59
2023/08/03 07:29:46;;;;;;;14.45;5.82;;;;;;;;;;4977288;28;20037;-59
2023/08/03 07:32:13;;;;;;;16.10;6.20;;;;;;;;;;4973908;28;20082;-59
2023/08/03 07:34:40;;;;;;;17.63;6.78;;;;;;;;;;4975435;28;20035;-59
2023/08/03 07:37:07;;;;;;;16.13;6.03;;;;;;;;;;4975427;28;20512;-59
2023/08/03 07:39:34;;;;;;;19.10;6.63;;;;;;;;;;4974038;28;20109;-59
2023/08/03 07:42:01;;;;;;;15.73;6.95;;;;;;;;;;4975200;28;20034;-59
2023/08/03 07:44:28;;;;;;;13.35;6.13;;;;;;;;;;4975317;28;20031;-59
2023/08/03 07:46:55;;;;;;;14.10;5.93;;;;;;;;;;4975158;28;20053;-59
2023/08/03 07:49:22;;;;;;;15.48;6.15;;;;;;;;;;4975218;28;20393;-58
2023/08/03 07:51:49;;;;;;;18.13;6.82;;;;;;;;;;4975016;28;20035;-59
2023/08/03 07:54:17;;;;;;;14.20;5.90;;;;;;;;;;4975024;28;20063;-59
2023/08/03 07:56:44;;;;;;;13.05;5.93;;;;;;;;;;4975075;28;20027;-59
2023/08/03 07:59:11;;;;;;;14.00;6.53;;;;;;;;;;4975044;28;20034;-59
2023/08/03 08:01:38;;;;;;;12.35;6.13;;;;;;;;;;4974898;28;20035;-59
2023/08/03 08:04:05;;;;;;;12.60;5.95;;;;;;;;;;4974897;28;20054;-59
2023/08/03 08:06:32;;;;;;;13.35;6.07;;;;;;;;;;4974846;28;20493;-59
2023/08/03 08:08:58;;;;;;;12.93;6.40;;;;;;;;;;4974666;28;20027;-59
2023/08/03 08:11:25;;;;;;;14.20;5.93;;;;;;;;;;4974684;28;20030;-59
2023/08/03 08:13:53;;;;;;;12.05;6.07;;;;;;;;;;4973394;28;20030;-59
2023/08/03 08:16:19;;;;;;;15.43;6.15;;;;;;;;;;4974626;28;20049;-59
2023/08/03 08:18:47;;;;;;;11.98;6.13;;;;;;;;;;4974621;28;20034;-59
2023/08/03 08:21:14;;;;;;;15.23;6.65;;;;;;;;;;4974553;28;20030;-59
2023/08/03 08:23:41;;;;;;;14.48;6.32;;;;;;;;;;4974438;28;20057;-59
2023/08/03 08:26:11;;;;;;;11.55;5.80;;;;;;;;;;4974541;28;20034;-59
2023/08/03 08:28:38;;;;;;;16.02;6.38;;;;;;;;;;4974241;28;20401;-59
2023/08/03 08:31:05;;;;;;;12.45;5.80;;;;;;;;;;4973503;28;20066;-59
2023/08/03 08:33:32;;;;;;;10.73;5.95;;;;;;;;;;4988639;28;20556;-60
2023/08/03 08:35:59;;;;;;;14.40;6.63;;;;;;;;;;4993744;28;20105;-59
2023/08/03 08:38:27;;;;;;;17.13;6.95;;;;;;;;;;4993702;28;20030;-59
2023/08/03 08:40:54;;;;;;;13.20;6.15;;;;;;;;;;4993619;28;20099;-59
2023/08/03 08:43:21;;;;;;;13.63;6.10;;;;;;;;;;4993487;28;20033;-59
2023/08/03 08:45:48;;;;;;;12.15;5.75;;;;;;;;;;4993516;28;20075;-59
2023/08/03 08:48:15;;;;;;;13.30;5.47;;;;;;;;;;4993410;28;20113;-59
2023/08/03 08:50:43;;;;;;;11.40;5.25;;;;;;;;;;4993435;28;20029;-59
2023/08/03 08:53:10;;;;;;;10.70;5.65;;;;;;;;;;4993083;28;20045;-57
2023/08/03 08:55:37;;;;;;;14.13;6.47;;;;;;;;;;4993313;28;20133;-56
2023/08/03 08:58:04;;;;;;;11.40;6.22;;;;;;;;;;4993267;28;20177;-57
2023/08/03 09:00:41;;;;;;;11.23;5.80;;;;;;;;;;4975755;28;20026;-57
2023/08/03 09:03:08;;;;;;;13.40;5.70;;;;;;;;;;4993158;28;20496;-58
2023/08/03 09:05:36;;;;;;;11.50;5.90;;;;;;;;;;4993069;28;20153;-58
2023/08/03 09:08:03;;;;;;;11.65;5.55;;;;;;;;;;4992854;28;20054;-57
2023/08/03 09:10:31;;;;;;;10.38;5.45;;;;;;;;;;4985990;28;20038;-59
2023/08/03 09:13:01;;;;;;;13.07;5.97;;;;;;;;;;4992982;28;20030;-58
2023/08/03 09:15:48;;;;;;;12.60;5.57;;;;;;;;;;4974860;28;20499;-61
2023/08/03 09:18:15;;;;;;;12.23;5.95;;;;;;;;;;4992905;28;20030;-59
2023/08/03 09:20:42;;;;;;;13.43;5.53;;;;;;;;;;4992891;28;20026;-60
2023/08/03 09:23:09;;;;;;;9.82;5.35;;;;;;;;;;4992383;28;20039;-57
2023/08/03 09:25:36;;;;;;;11.60;5.85;;;;;;;;;;4992400;28;20034;-59
2023/08/03 09:28:03;;;;;;;12.88;5.63;;;;;;;;;;4991789;28;20046;-59
2023/08/03 09:30:30;;;;;;;11.27;5.40;;;;;;;;;;4992062;28;20030;-59
2023/08/03 09:32:57;;;;;;;12.32;5.72;;;;;;;;;;4991698;28;20046;-58
2023/08/03 09:35:27;;;;;;;13.27;5.57;;;;;;;;;;4991991;28;20069;-59
2023/08/03 09:37:55;;;;;;;11.85;5.85;;;;;;;;;;4991737;28;20452;-60
2023/08/03 09:40:23;;;;;;;11.27;5.40;;;;;;;;;;4991618;28;20034;-58
2023/08/03 09:42:50;;;;;;;10.98;5.38;;;;;;;;;;4972048;28;20042;-59
2023/08/03 09:45:17;;;;;;;12.45;4.93;;;;;;;;;;4975577;28;20033;-57
2023/08/03 09:47:45;;;;;;;20.25;5.75;;;;;;;;;;4955524;28;20045;-58
2023/08/03 09:50:12;;;;;;;12.35;4.80;;;;;;;;;;4972664;28;20485;-58
2023/08/03 09:52:50;;;;;;;14.95;4.78;;;;;;;;;;4972763;28;20041;-58
2023/08/03 09:55:21;;;;;;;13.60;5.32;;;;;;;;;;4972679;28;20117;-58
2023/08/03 09:58:00;;;;;;;11.02;4.88;;;;;;;;;;4973055;28;20110;-58
2023/08/03 10:00:28;;;;;;;17.65;5.28;;;;;;;;;;4992335;28;20049;-59
2023/08/03 10:03:09;;;;;;;11.50;4.80;;;;;;;;;;4992016;28;20038;-59
2023/08/03 10:05:45;;;;;;;18.98;5.32;;;;;;;;;;4992118;28;20085;-59
2023/08/03 10:08:15;;;;;;;16.92;4.72;;;;;;;;;;4991715;28;20559;-57
2023/08/03 10:10:49;;;;;;;11.38;4.95;;;;;;;;;;4984203;28;20031;-62
2023/08/03 10:13:16;;;;;;;14.80;4.22;;;;;;;;;;4990548;28;20037;-64
2023/08/03 10:15:43;;;;;;;18.27;4.90;;;;;;;;;;4991823;28;20043;-63
2023/08/03 10:18:11;;;;;;;16.27;5.25;;;;;;;;;;4973245;28;20480;-65
2023/08/03 10:20:39;;;;;;;12.90;5.30;;;;;;;;;;4991572;28;20056;-63
2023/08/03 10:23:09;;;;;;;12.00;4.85;;;;;;;;;;4990395;28;20457;-64
2023/08/03 10:25:56;;;;;;;16.85;4.82;;;;;;;;;;4991716;28;20097;-64
2023/08/03 10:28:43;;;;;;;18.33;5.20;;;;;;;;;;4991608;28;20042;-64
2023/08/03 10:31:17;;;;;;;12.55;4.50;;;;;;;;;;4981511;28;20042;-63
2023/08/03 10:33:50;;;;;;;11.75;4.32;;;;;;;;;;4989733;28;20505;-65
2023/08/03 10:36:33;;;;;;;12.40;4.95;;;;;;;;;;4990518;28;20050;-62
2023/08/03 10:39:02;;;;;;;11.80;4.72;;;;;;;;;;4991488;28;20026;-64
2023/08/03 10:41:37;;;;;;;13.93;4.63;;;;;;;;;;4991148;28;20114;-67
2023/08/03 10:44:07;;;;;;;13.27;5.00;;;;;;;;;;4990471;28;20405;-59
2023/08/03 10:46:35;;;;;;;15.95;4.90;;;;;;;;;;4986817;28;20053;-64
2023/08/03 10:51:48;;;;;;;17.77;5.20;;;;;;;;;;4991579;28;20041;-64
2023/08/03 10:54:15;;;;;;;17.85;5.10;;;;;;;;;;4994087;28;20108;-64
2023/08/03 10:57:02;;;;;;;19.05;4.85;;;;;;;;;;4992607;28;20068;-62
2023/08/03 10:59:29;;;;;;;16.27;4.43;;;;;;;;;;4995280;28;20034;-62
2023/08/03 11:01:56;;;;;;;14.73;4.90;;;;;;;;;;4995211;28;20706;-65
2023/08/03 11:04:26;;;;;;;34.05;5.43;;;;;;;;;;4995166;28;20908;-60
2023/08/03 11:06:53;;;;;;;28.48;5.60;;;;;;;;;;4974461;28;20030;-56
2023/08/03 11:09:20;;;;;;;29.48;5.68;;;;;;;;;;4990084;28;20046;-59
2023/08/03 11:11:49;;;;;;;20.95;4.60;;;;;;;;;;4991980;28;20037;-59
2023/08/03 11:14:16;;;;;;;25.80;5.10;;;;;;;;;;4992965;28;20388;-59
2023/08/03 11:16:43;;;;;;;21.38;5.30;;;;;;;;;;4990670;28;20530;-60
2023/08/03 11:19:14;;;;;;;17.80;4.97;;;;;;;;;;4993550;28;20030;-60
2023/08/03 11:21:44;;;;;;;30.35;5.25;;;;;;;;;;4993126;28;20477;-60
2023/08/03 11:24:11;;;;;;;26.60;5.80;;;;;;;;;;4993384;28;20043;-60
2023/08/03 11:26:38;;;;;;;21.40;5.20;;;;;;;;;;4990285;28;20057;-61
2023/08/03 11:29:06;;;;;;;22.65;5.22;;;;;;;;;;4993117;28;20034;-60
2023/08/03 11:31:33;;;;;;;19.38;5.32;;;;;;;;;;4992754;28;20409;-62
2023/08/03 11:34:00;;;;;;;20.92;5.00;;;;;;;;;;4994644;28;20053;-61
2023/08/03 11:36:27;;;;;;;24.33;5.85;;;;;;;;;;4994710;28;20084;-61
2023/08/03 11:38:54;;;;;;;30.63;5.40;;;;;;;;;;4992054;28;20034;-60
2023/08/03 11:41:24;;;;;;;27.13;6.00;;;;;;;;;;4976912;28;20022;-60
2023/08/03 11:43:51;;;;;;;34.80;6.32;;;;;;;;;;4994462;28;20030;-60
2023/08/03 11:46:28;;;;;;;30.92;5.63;;;;;;;;;;4994584;28;20076;-60
2023/08/03 11:48:59;;;;;;;34.30;6.03;;;;;;;;;;4994109;28;20038;-61
2023/08/03 11:51:39;;;;;;;24.77;5.90;;;;;;;;;;4994442;28;20030;-61
2023/08/03 11:54:06;;;;;;;27.08;5.72;;;;;;;;;;4994535;28;20030;-60
2023/08/03 11:56:34;;;;;;;32.38;6.05;;;;;;;;;;4994292;28;20034;-50
2023/08/03 11:59:01;;;;;;;27.52;5.72;;;;;;;;;;4994442;28;20659;-51
2023/08/03 12:01:28;;;;;;;31.85;6.00;;;;;;;;;;4977073;28;20030;-50
2023/08/03 12:04:09;;;;;;;34.97;5.65;;;;;;;;;;4994100;28;20515;-51
2023/08/03 12:06:51;;;;;;;36.35;6.10;;;;;;;;;;4993486;28;20034;-49
2023/08/03 12:09:19;;;;;;;27.73;6.35;;;;;;;;;;4994133;28;20046;-50
2023/08/03 12:11:46;;;;;;;33.30;6.07;;;;;;;;;;4994040;28;20026;-49
2023/08/03 12:14:13;;;;;;;31.10;6.13;;;;;;;;;;4994176;28;20061;-50
2023/08/03 12:16:40;;;;;;;32.92;6.13;;;;;;;;;;4976535;28;20030;-50
2023/08/03 12:19:10;;;;;;;32.78;6.63;;;;;;;;;;4976416;28;20033;-50
2023/08/03 12:21:40;;;;;;;38.17;6.60;;;;;;;;;;4993808;28;20449;-57
2023/08/03 12:24:07;;;;;;;33.38;6.90;;;;;;;;;;4993791;28;20036;-58
2023/08/03 12:26:35;;;;;;;30.58;6.68;;;;;;;;;;4993833;28;20388;-59
2023/08/03 12:29:03;;;;;;;30.88;6.63;;;;;;;;;;4993763;28;20691;-58
2023/08/03 12:31:30;;;;;;;24.95;6.30;;;;;;;;;;4993692;28;20792;-58
2023/08/03 12:33:57;;;;;;;31.58;6.95;;;;;;;;;;4993596;28;20055;-58
2023/08/03 12:36:24;;;;;;;34.20;6.72;;;;;;;;;;4993677;28;20037;-56
2023/08/03 12:38:51;;;;;;;31.70;5.88;;;;;;;;;;4993654;28;20499;-58
2023/08/03 12:41:19;;;;;;;36.60;6.13;;;;;;;;;;4993478;28;20034;-58
2023/08/03 12:43:46;;;;;;;31.90;7.05;;;;;;;;;;4993414;28;20034;-58
2023/08/03 12:46:13;;;;;;;36.85;6.35;;;;;;;;;;4993377;28;20053;-59
2023/08/03 12:48:40;;;;;;;33.75;6.95;;;;;;;;;;4993269;28;20435;-58
2023/08/03 12:51:07;;;;;;;39.08;7.35;;;;;;;;;;4993293;28;20026;-58
2023/08/03 12:53:34;;;;;;;33.25;6.55;;;;;;;;;;4993358;28;20165;-55
2023/08/03 12:56:01;;;;;;;32.28;6.43;;;;;;;;;;4993333;28;20030;-54
2023/08/03 12:58:28;;;;;;;34.50;7.05;;;;;;;;;;4993348;28;20396;-55
2023/08/03 13:00:59;;;;;;;42.83;8.13;;;;;;;;;;4993203;28;20500;-55
2023/08/03 13:03:26;;;;;;;38.63;7.57;;;;;;;;;;4993120;28;20041;-54
2023/08/03 13:05:54;;;;;;;35.40;8.00;;;;;;;;;;4993190;28;20558;-55
2023/08/03 13:08:21;;;;;;;47.85;7.15;;;;;;;;;;4992942;28;20039;-57
2023/08/03 13:10:49;;;;;;;37.95;7.68;;;;;;;;;;4993083;28;20022;-57
2023/08/03 13:13:18;;;;;;;33.42;7.05;;;;;;;;;;4992933;28;20018;-57
2023/08/03 13:15:48;;;;;;;30.13;7.50;;;;;;;;;;4992655;28;20551;-56
2023/08/03 13:18:16;;;;;;;41.75;7.78;;;;;;;;;;4992981;28;20030;-55
2023/08/03 13:20:43;;;;;;;30.60;6.45;;;;;;;;;;4992980;28;20515;-55
2023/08/03 13:23:10;;;;;;;31.42;6.72;;;;;;;;;;4992828;28;20069;-57
2023/08/03 13:25:36;;;;;;;33.40;6.85;;;;;;;;;;4992842;28;20065;-55
2023/08/03 13:28:05;;;;;;;31.35;6.88;;;;;;;;;;4992725;28;20042;-56
2023/08/03 13:30:32;;;;;;;25.88;6.97;;;;;;;;;;4992641;28;20089;-57
2023/08/03 13:32:59;;;;;;;36.47;7.18;;;;;;;;;;4992508;28;20058;-55
2023/08/03 13:35:26;;;;;;;27.13;6.47;;;;;;;;;;4992712;28;20026;-57
2023/08/03 13:37:53;;;;;;;25.48;6.07;;;;;;;;;;4992705;28;20037;-57
2023/08/03 13:40:20;;;;;;;27.73;6.47;;;;;;;;;;4992610;28;20034;-57
2023/08/03 13:42:47;;;;;;;25.00;6.65;;;;;;;;;;4992578;28;20037;-57
2023/08/03 13:45:14;;;;;;;26.20;5.65;;;;;;;;;;4992606;28;20051;-56
2023/08/03 13:47:41;;;;;;;24.92;6.53;;;;;;;;;;4992510;28;20497;-57
2023/08/03 13:50:08;;;;;;;26.58;6.20;;;;;;;;;;4992477;28;20085;-57
2023/08/03 13:52:35;;;;;;;26.65;6.40;;;;;;;;;;4992402;28;20038;-55
2023/08/03 13:55:02;;;;;;;22.92;5.72;;;;;;;;;;4992506;28;20085;-58
2023/08/03 13:57:30;;;;;;;18.30;5.85;;;;;;;;;;4992497;28;20029;-57
2023/08/03 13:59:57;;;;;;;25.15;5.30;;;;;;;;;;4992375;28;20026;-55
2023/08/03 14:02:24;;;;;;;26.00;5.32;;;;;;;;;;4992192;28;20423;-54
2023/08/03 14:04:51;;;;;;;22.55;5.15;;;;;;;;;;4992355;28;20029;-57
2023/08/03 14:07:18;;;;;;;18.33;5.70;;;;;;;;;;4992211;28;20485;-57
2023/08/03 14:09:46;;;;;;;20.83;4.47;;;;;;;;;;4992238;28;20476;-57
2023/08/03 14:12:13;;;;;;;16.77;4.93;;;;;;;;;;4992286;28;20040;-56
2023/08/03 14:14:40;;;;;;;21.35;4.90;;;;;;;;;;4992213;28;20038;-58
2023/08/03 14:17:09;;;;;;;21.83;5.40;;;;;;;;;;4992199;28;20033;-57
2023/08/03 14:19:36;;;;;;;23.23;5.07;;;;;;;;;;4992015;28;20034;-58
2023/08/03 14:22:03;;;;;;;17.65;4.75;;;;;;;;;;4991894;28;20034;-57
2023/08/03 14:24:30;;;;;;;17.27;4.82;;;;;;;;;;4992184;28;20029;-56
2023/08/03 14:26:57;;;;;;;17.35;4.43;;;;;;;;;;4992132;28;20531;-55
2023/08/03 14:29:24;;;;;;;19.75;4.38;;;;;;;;;;4994836;28;20128;-58
2023/08/03 14:31:51;;;;;;;22.00;4.75;;;;;;;;;;4995791;28;20030;-55
2023/08/03 14:34:18;;;;;;;22.02;4.35;;;;;;;;;;4995915;28;20401;-55